Terminal Aerodrome Forecast
Issued by NWS Twin Cities, MN

Home | Current Version | Previous Version | Graphics & Text | Print | Product List | Glossary On
Versions: 1 2 3 4 5 6 7 8 9 10 11 12 13 14 15 16 17 18
000
FTUS43 KMPX 302300
TAFSTC
TAF
KSTC 302339Z 0100/0124 12012KT P6SM VCSH SCT050 BKN080
     FM010600 13013KT 6SM BR OVC007
     FM011000 16010KT 4SM BR OVC008
     FM011700 17009KT P6SM OVC015
     FM012200 17006KT P6SM OVC030=

USA.gov is the U.S. government's official web portal to all federal, state and local government web resources and services.